createdAt,value
2019-05-10T11:18:16.104Z,65.00
2019-05-10T11:20:49.540Z,66.10
2019-05-10T11:23:16.195Z,64.80
2019-05-10T11:25:54.681Z,64.80
2019-05-10T11:28:13.504Z,65.20
2019-05-10T11:30:41.488Z,67.00
2019-05-10T11:33:23.907Z,66.60
2019-05-10T11:35:41.541Z,65.00
2019-05-10T11:38:12.926Z,67.30
2019-05-10T11:40:38.531Z,69.40
2019-05-10T11:43:09.557Z,71.10
2019-05-10T11:45:40.918Z,71.20
2019-05-10T11:48:07.255Z,70.80
2019-05-10T11:50:35.733Z,68.40
2019-05-10T11:53:13.308Z,67.50
2019-05-10T11:55:45.064Z,66.70
2019-05-10T11:58:18.836Z,65.10
2019-05-10T12:00:46.885Z,66.10
2019-05-10T12:03:18.544Z,65.10
2019-05-10T12:05:44.774Z,66.10
2019-05-10T12:08:13.273Z,66.10
2019-05-10T12:10:52.409Z,67.10
2019-05-10T12:13:18.677Z,69.30
2019-05-10T12:15:43.390Z,70.10
2019-05-10T12:18:14.745Z,68.90
2019-05-10T12:20:55.903Z,68.30
2019-05-10T12:23:13.242Z,68.80
2019-05-10T12:25:53.113Z,70.10
2019-05-10T12:28:15.346Z,70.20
2019-05-10T12:33:32.725Z,66.80
2019-05-10T12:35:52.032Z,66.80
2019-05-10T12:38:23.748Z,62.00
2019-05-10T12:40:51.348Z,65.00
2019-05-10T12:43:21.105Z,66.30
2019-05-10T12:45:51.566Z,66.50
2019-05-10T12:48:23.172Z,69.30
2019-05-10T12:50:54.390Z,68.10
2019-05-10T12:53:21.452Z,64.00
2019-05-10T12:55:49.716Z,61.90
2019-05-10T12:58:18.733Z,63.90
2019-05-10T13:00:52.374Z,66.10
2019-05-10T13:03:19.255Z,63.30
2019-05-10T13:05:52.417Z,62.80
2019-05-10T13:08:16.741Z,63.20
2019-05-10T13:10:49.948Z,65.70
2019-05-10T13:13:27.007Z,67.50
2019-05-10T13:15:52.852Z,66.10
2019-05-10T13:18:23.123Z,66.30
2019-05-10T13:20:51.475Z,65.30
2019-05-10T13:23:19.546Z,65.10
2019-05-10T13:25:47.604Z,64.40
2019-05-10T13:28:15.585Z,62.90
2019-05-10T13:30:43.581Z,61.10
2019-05-10T13:33:26.670Z,61.00
2019-05-10T13:35:41.610Z,62.20
2019-05-10T13:38:09.762Z,60.30
2019-05-10T13:40:45.010Z,57.80
2019-05-10T13:43:09.391Z,58.50
2019-05-10T13:45:39.939Z,60.90
2019-05-10T13:48:08.000Z,57.50
2019-05-10T13:50:55.658Z,56.50
2019-05-10T13:53:24.740Z,55.60
2019-05-10T13:55:52.778Z,54.30
2019-05-10T13:58:20.890Z,54.60
2019-05-10T14:00:49.032Z,55.90
2019-05-10T14:03:17.018Z,56.60
2019-05-10T14:05:45.067Z,56.50
2019-05-10T14:08:13.139Z,56.30
2019-05-10T14:10:41.207Z,57.00
2019-05-10T14:13:09.312Z,57.00
2019-05-10T14:15:37.370Z,57.10
2019-05-10T14:18:05.451Z,55.40
2019-05-10T14:20:33.479Z,54.90
2019-05-10T14:23:01.586Z,55.50
2019-05-10T14:25:36.268Z,56.50
2019-05-10T14:27:59.348Z,55.70
2019-05-10T14:30:27.406Z,55.90
2019-05-10T14:32:55.393Z,55.00
2019-05-10T14:35:24.501Z,55.60
2019-05-10T14:37:52.659Z,55.50
2019-05-10T14:40:27.570Z,55.60
2019-05-10T14:42:50.421Z,54.40
2019-05-10T14:45:18.411Z,53.60
2019-05-10T14:47:50.178Z,53.90
2019-05-10T14:50:19.262Z,51.80
2019-05-10T14:52:45.860Z,52.60
2019-05-10T14:55:13.952Z,51.90
2019-05-10T14:57:42.031Z,52.90
2019-05-10T15:00:10.379Z,53.20
2019-05-10T15:02:38.507Z,54.30
2019-05-10T15:05:08.890Z,53.60
2019-05-10T15:07:36.318Z,54.70
2019-05-10T15:10:04.687Z,55.20
2019-05-10T15:12:32.755Z,55.30
2019-05-10T15:15:00.942Z,56.20
2019-05-10T15:17:30.278Z,57.40
2019-05-10T15:20:00.041Z,56.20
2019-05-10T15:22:28.294Z,58.40
2019-05-10T15:24:56.288Z,58.50
2019-05-10T15:27:24.307Z,59.10
2019-05-10T15:29:52.381Z,58.80
2019-05-10T15:32:20.388Z,58.70
2019-05-10T15:35:05.086Z,59.50
2019-05-10T15:37:18.076Z,58.70
2019-05-10T15:39:46.146Z,59.40
2019-05-10T15:42:14.203Z,59.90
2019-05-10T15:44:42.198Z,60.00
2019-05-10T15:47:14.451Z,60.90
2019-05-10T15:49:39.906Z,59.90
2019-05-10T15:52:17.574Z,57.30
2019-05-10T15:54:44.132Z,56.10
2019-05-10T15:57:07.444Z,56.90
2019-05-10T15:59:35.558Z,57.90
2019-05-10T16:02:03.802Z,56.70
2019-05-10T16:04:31.785Z,57.00
2019-05-10T16:06:59.787Z,57.20
2019-05-10T16:09:27.787Z,57.40
2019-05-10T16:12:01.485Z,56.50
2019-05-10T16:14:25.567Z,56.50
2019-05-10T16:16:53.574Z,56.80
2019-05-10T16:19:21.636Z,56.70
2019-05-10T16:21:52.229Z,56.80
2019-05-10T16:24:25.937Z,56.60
2019-05-10T16:26:49.055Z,55.70
2019-05-10T16:29:17.104Z,53.80
2019-05-10T16:31:45.112Z,54.00
2019-05-10T16:34:13.097Z,53.90
2019-05-10T16:36:41.113Z,52.40
2019-05-10T16:39:09.202Z,51.60
2019-05-10T16:41:37.206Z,51.40
2019-05-10T16:44:05.186Z,52.10
2019-05-10T16:46:33.342Z,54.00
2019-05-10T16:49:01.505Z,54.50
2019-05-10T16:51:29.574Z,55.80
2019-05-10T16:53:57.566Z,55.70
2019-05-10T16:56:25.853Z,55.60
2019-05-10T16:58:55.108Z,55.70
2019-05-10T17:01:25.704Z,56.10
2019-05-10T17:03:59.979Z,56.00
2019-05-10T17:06:23.035Z,56.70
2019-05-10T17:08:51.078Z,58.40
2019-05-10T17:11:19.081Z,57.70
2019-05-10T17:13:47.072Z,58.00
2019-05-10T17:16:16.884Z,57.90
2019-05-10T17:18:49.766Z,57.60
2019-05-10T17:21:14.494Z,58.30
2019-05-10T17:23:46.750Z,57.80
2019-05-10T17:26:12.178Z,58.30
2019-05-10T17:28:40.165Z,58.70
2019-05-10T17:31:09.670Z,60.00
2019-05-10T17:33:42.563Z,59.00
2019-05-10T17:36:08.841Z,59.80
2019-05-10T17:38:37.143Z,59.40
2019-05-10T17:41:05.153Z,59.40
2019-05-10T17:43:33.155Z,60.70
2019-05-10T17:46:01.152Z,61.50
2019-05-10T17:48:29.191Z,63.60
2019-05-10T17:50:57.288Z,65.40
2019-05-10T17:53:25.502Z,66.80
2019-05-10T17:55:55.576Z,67.40
2019-05-10T17:58:27.818Z,68.20
2019-05-10T18:00:52.968Z,68.10
2019-05-10T18:03:21.048Z,66.90
2019-05-10T18:05:53.151Z,67.30
2019-05-10T18:08:18.849Z,67.30
2019-05-10T18:10:46.932Z,67.50
2019-05-10T18:13:14.948Z,66.90
2019-05-10T18:15:43.052Z,67.80
2019-05-10T18:18:11.160Z,69.10
2019-05-10T18:20:42.170Z,68.90
2019-05-10T18:23:09.719Z,69.20
2019-05-10T18:25:37.902Z,69.30
2019-05-10T18:28:06.277Z,68.40
2019-05-10T18:30:34.501Z,67.50
2019-05-10T18:33:06.702Z,67.80
2019-05-10T18:35:32.258Z,68.50
2019-05-10T18:38:00.964Z,69.30
2019-05-10T18:40:31.541Z,69.30
2019-05-10T18:43:03.908Z,68.20
2019-05-10T18:45:29.825Z,68.60
2019-05-10T18:47:58.228Z,68.20
2019-05-10T18:50:26.530Z,67.40
2019-05-10T18:52:54.551Z,67.70
2019-05-10T18:55:22.567Z,67.00
2019-05-10T18:57:52.565Z,68.30
2019-05-10T19:00:23.086Z,67.80
2019-05-10T19:02:55.353Z,67.40
2019-05-10T19:05:25.158Z,66.90
2019-05-10T19:08:02.658Z,67.20
2019-05-10T19:10:19.458Z,68.20
2019-05-10T19:12:53.684Z,68.50
2019-05-10T19:15:17.185Z,68.70
2019-05-10T19:17:45.914Z,68.50
2019-05-10T19:20:16.096Z,68.80
2019-05-10T19:22:44.932Z,68.80
2019-05-10T19:25:14.400Z,69.50
2019-05-10T19:27:44.742Z,69.30
2019-05-10T19:30:12.775Z,69.60
2019-05-10T19:32:41.033Z,68.90
2019-05-10T19:35:09.425Z,68.20
2019-05-10T19:37:37.524Z,68.20
2019-05-10T19:40:07.337Z,68.80
2019-05-10T19:42:37.156Z,70.70
2019-05-10T19:45:05.881Z,69.50
2019-05-10T19:47:33.889Z,71.30
2019-05-10T19:50:02.031Z,71.40
2019-05-10T19:52:30.220Z,71.20
2019-05-10T19:54:58.313Z,71.10
2019-05-10T19:57:26.342Z,71.40
2019-05-10T19:59:54.443Z,71.70
2019-05-10T20:02:22.439Z,71.20
2019-05-10T20:04:50.445Z,71.10
2019-05-10T20:07:18.538Z,71.30
2019-05-10T20:09:46.883Z,71.40
2019-05-10T20:12:15.028Z,71.50
2019-05-10T20:14:43.297Z,71.60
2019-05-10T20:20:00.968Z,72.50
2019-05-10T20:22:29.087Z,73.10
2019-05-10T20:24:57.130Z,73.70
2019-05-10T20:27:25.205Z,74.20
2019-05-10T20:29:53.251Z,74.60
2019-05-10T20:32:21.252Z,75.00
2019-05-10T20:34:49.255Z,75.30
2019-05-10T20:37:17.262Z,75.00
2019-05-10T20:39:45.469Z,73.60
2019-05-10T20:42:13.914Z,72.90
2019-05-10T20:44:42.050Z,72.60
2019-05-10T20:47:10.137Z,73.00
2019-05-10T20:49:38.269Z,72.80
2019-05-10T20:52:06.828Z,72.90
2019-05-10T20:54:35.193Z,72.70
2019-05-10T20:57:04.350Z,72.80
2019-05-10T20:59:32.501Z,75.10
2019-05-10T21:02:00.590Z,74.60
2019-05-10T21:04:28.742Z,74.30
2019-05-10T21:06:56.742Z,75.30
2019-05-10T21:09:24.843Z,74.40
2019-05-10T21:11:52.916Z,74.60
2019-05-10T21:14:20.923Z,75.30
2019-05-10T21:16:48.946Z,76.40
2019-05-10T21:19:19.782Z,76.90
2019-05-10T21:21:46.843Z,77.80
2019-05-10T21:24:14.908Z,78.00
2019-05-10T21:26:42.922Z,79.30
2019-05-10T21:29:11.053Z,79.90
2019-05-10T21:31:39.159Z,80.80
2019-05-10T21:34:09.712Z,80.40
2019-05-10T21:36:36.878Z,80.10
2019-05-10T21:39:06.630Z,78.80
2019-05-10T21:41:34.788Z,78.40
2019-05-10T21:44:02.851Z,78.10
2019-05-10T21:46:30.869Z,78.30
2019-05-10T21:48:58.913Z,79.90
2019-05-10T21:51:27.033Z,79.80
2019-05-10T21:53:55.086Z,80.30
2019-05-10T21:56:23.103Z,81.10
2019-05-10T21:58:51.158Z,81.20
2019-05-10T22:01:19.182Z,81.80
2019-05-10T22:03:47.312Z,82.80
2019-05-10T22:06:15.449Z,83.20
2019-05-10T22:08:49.292Z,83.40
2019-05-10T22:11:13.404Z,83.60
2019-05-10T22:13:41.506Z,83.70
2019-05-10T22:16:09.629Z,83.80
2019-05-10T22:18:38.103Z,84.10
2019-05-10T22:21:06.286Z,84.30
2019-05-10T22:23:34.389Z,83.80
2019-05-10T22:26:02.510Z,83.80
2019-05-10T22:28:30.613Z,82.10
2019-05-10T22:30:58.709Z,82.60
2019-05-10T22:33:26.815Z,82.00
2019-05-10T22:35:55.020Z,80.60
2019-05-10T22:38:23.129Z,81.00
2019-05-10T22:40:51.241Z,82.20
2019-05-10T22:43:19.350Z,83.20
2019-05-10T22:45:47.462Z,84.40
2019-05-10T22:48:15.573Z,84.90
2019-05-10T22:50:43.735Z,84.90
2019-05-10T22:53:11.938Z,84.60
2019-05-10T22:55:40.032Z,85.40
2019-05-10T22:58:08.261Z,85.40
2019-05-10T23:00:36.468Z,84.60
2019-05-10T23:03:04.613Z,82.70
2019-05-10T23:05:32.714Z,82.30
2019-05-10T23:08:00.850Z,82.30
2019-05-10T23:10:28.953Z,82.60
2019-05-10T23:12:57.073Z,83.10
2019-05-10T23:15:25.173Z,82.50
2019-05-10T23:17:53.289Z,82.90
2019-05-10T23:20:21.395Z,83.30
2019-05-10T23:22:49.515Z,83.80
2019-05-10T23:25:17.612Z,83.50
2019-05-10T23:27:45.758Z,83.20
